Hector International Airport
KFAR : now visible

Aeroporto :











RITROVATECI SU...

 
LOGIN :

Iscrizione | Disclaimer

   EN    FR    IT 

 









Sommario :    VFR   VFR Marginale   IFR   IFR Intensivo   IFR Molto Intensivo
Visibilità : 
Base nubi : 
>= 8 km
>= 3000ft
5 / 8 km
1000 / 3000 ft
1500m / 5 km
500 / 1000 ft
800 / 1500m
200 / 500 ft
< 800m
< 200 ft
Simboli :   Temporali  Nebbia  Neve Forte  Precipitazioni Forti  Vento > 20 kt






- Altitudine del aeroporto : 902 ft
- Codice IATA : FAR


KFAR - Hector International

ULTIMO METAR :
  • 190553Z 17008KT 10SM CLR 21/13 A3005 RMK AO2 SLP174 T02110133 10267 20211 402830117 58003

METARs OBSOLETI :
  • 190453Z 16007KT 10SM CLR 22/13 A3006 RMK AO2 SLP175 T02170133
  • 190353Z 16007KT 10SM CLR 23/13 A3007 RMK AO2 SLP178 T02280133
  • 190253Z 16005KT 10SM CLR 23/13 A3006 RMK AO2 SLP178 T02330133 55005
  • 190153Z 17006KT 10SM CLR 24/13 A3006 RMK AO2 SLP176 T02440133

TAF KFAR
Valido dal 19 a 06 ore il 20 a 06 ore UTC


190520Z 1906/2006 VRB05KT P6SM FEW060
FM191800 VRB05KT P6SM FEW045
FM192100 VRB05KT P6SM SCT050
FIR KZMP / America del Nord



MetMap, La meteo Aeronautica in un colpo d'occhio ! - Copyright ORBIFLY Dicembre 2007 - Disclaimer

ORBIFLY MET'MAP TEAM :

Programmazione e sviluppo : Alexandra Zaïnal
Concezione : Baudouin d'Aumeries
Supporto tecnico e logistico : Manuel Goepfert
Aiuto : Marc-Olivier Méhu
Aiuto per la traduzione : Arnaldo La Scala




FONTI E CREDITI :

   NOAA       Earth
Advisory